Time;durP1;ratioP1;P1;durP2;ratioP2;P2;SDS_P1;SDS_P2;PMS_P1;PMS_P2;Temp;Humidity;BMP_temperature;BMP_pressure;BME280_temperature;BME280_humidity;BME280_pressure;Samples;Min_cycle;Max_cycle;Signal;HPM_P1;HPM_P2
2020/12/09 00:02:20;;;;;;;37.63;8.13;;;;;;;1.20;93.98;101493.58;1694237;83;21174;-56
2020/12/09 00:04:48;;;;;;;23.20;7.40;;;;;;;1.22;93.90;101514.34;1707906;83;21195;-56
2020/12/09 00:07:16;;;;;;;22.27;6.58;;;;;;;1.21;94.01;101490.08;1686219;83;21073;-57
2020/12/09 00:09:44;;;;;;;26.17;7.67;;;;;;;1.18;93.85;101496.64;1703271;83;21064;-56
2020/12/09 00:12:11;;;;;;;26.62;7.62;;;;;;;1.17;93.75;101494.86;1697986;83;21213;-56
2020/12/09 00:14:40;;;;;;;24.05;8.28;;;;;;;1.17;94.11;101500.14;1696231;83;21103;-57
2020/12/09 00:17:08;;;;;;;29.87;7.50;;;;;;;1.19;94.22;101487.84;1696037;83;21137;-57
2020/12/09 00:19:36;;;;;;;17.27;7.03;;;;;;;1.19;94.39;101486.52;1708497;84;21096;-57
2020/12/09 00:22:04;;;;;;;18.15;6.53;;;;;;;1.22;94.40;101494.53;1697570;83;21068;-57
2020/12/09 00:24:31;;;;;;;20.85;7.58;;;;;;;1.21;94.03;101494.04;1700611;83;21386;-57
2020/12/09 00:26:59;;;;;;;21.02;7.67;;;;;;;1.20;93.75;101492.27;1701148;83;21146;-56
2020/12/09 00:29:26;;;;;;;20.88;7.12;;;;;;;1.20;93.89;101494.91;1687547;83;21096;-56
2020/12/09 00:31:54;;;;;;;36.98;6.80;;;;;;;1.20;93.56;101497.13;1692565;83;22031;-56
2020/12/09 00:34:22;;;;;;;22.30;6.97;;;;;;;1.18;93.33;101509.43;1705957;83;21111;-57
2020/12/09 00:36:50;;;;;;;28.52;8.38;;;;;;;1.19;93.33;101498.41;1789922;78;21400;-57
2020/12/09 00:39:17;;;;;;;23.40;7.83;;;;;;;1.19;93.76;101494.45;1798165;79;21529;-56
2020/12/09 00:41:45;;;;;;;19.62;6.70;;;;;;;1.19;94.00;101481.24;1790137;80;20993;-57
2020/12/09 00:44:13;;;;;;;20.35;6.45;;;;;;;1.19;94.01;101503.70;1732862;81;21469;-56
2020/12/09 00:46:41;;;;;;;20.82;6.72;;;;;;;1.20;94.22;101483.92;1787555;80;21602;-56
2020/12/09 00:49:09;;;;;;;28.62;7.58;;;;;;;1.21;93.56;101500.64;1730461;82;21361;-56
2020/12/09 00:51:37;;;;;;;31.25;8.53;;;;;;;1.22;93.08;101483.96;1739091;81;21202;-56
2020/12/09 00:54:05;;;;;;;22.40;7.30;;;;;;;1.22;93.16;101498.48;1766388;80;21135;-56
2020/12/09 00:56:33;;;;;;;21.45;6.83;;;;;;;1.24;93.58;101494.12;1749457;81;21075;-57
2020/12/09 00:59:03;;;;;;;22.22;6.83;;;;;;;1.24;93.88;101492.34;1726647;81;21091;-56
2020/12/09 01:01:32;;;;;;;27.87;8.33;;;;;;;1.25;93.97;101524.50;1722029;82;21391;-57
2020/12/09 01:04:05;;;;;;;26.60;8.70;;;;;;;1.26;94.08;101501.63;1718204;82;21206;-57
2020/12/09 01:06:34;;;;;;;30.05;6.85;;;;;;;1.24;94.21;101487.52;1726257;82;21207;-56
2020/12/09 01:09:04;;;;;;;19.73;7.05;;;;;;;1.24;94.26;101491.48;1743163;81;21252;-57
2020/12/09 01:11:32;;;;;;;25.30;7.10;;;;;;;1.24;94.25;101486.19;1721217;82;21120;-57
2020/12/09 01:14:00;;;;;;;21.55;7.53;;;;;;;1.25;94.24;101498.53;1714603;82;22252;-56
2020/12/09 01:16:28;;;;;;;30.32;6.05;;;;;;;1.25;93.05;101493.25;1788129;79;21248;-56
2020/12/09 01:18:55;;;;;;;22.98;5.90;;;;;;;1.25;93.09;101478.27;1798648;79;21119;-56
2020/12/09 01:21:30;;;;;;;28.02;7.92;;;;;;;1.28;93.32;101481.41;1804360;79;21103;-56
2020/12/09 01:23:57;;;;;;;31.45;8.23;;;;;;;1.32;93.39;101463.82;1795033;79;24895;-57
2020/12/09 01:26:26;;;;;;;17.27;6.72;;;;;;;1.33;93.53;101494.25;1789550;79;22128;-56
2020/12/09 01:28:53;;;;;;;17.70;6.30;;;;;;;1.34;93.47;101482.81;1736854;82;21510;-56
2020/12/09 01:31:22;;;;;;;23.80;7.12;;;;;;;1.33;93.48;101491.60;1736523;82;21147;-56
2020/12/09 01:33:50;;;;;;;30.43;7.53;;;;;;;1.34;94.01;101468.72;1725250;81;21127;-57
2020/12/09 01:36:22;;;;;;;22.13;8.35;;;;;;;1.36;94.18;101486.36;1758670;80;21615;-57
2020/12/09 01:38:51;;;;;;;21.68;8.03;;;;;;;1.36;93.95;101473.14;1739253;81;21699;-56
2020/12/09 01:41:20;;;;;;;21.37;6.83;;;;;;;1.34;93.78;101472.23;1735700;82;21246;-57
2020/12/09 01:43:48;;;;;;;18.67;6.30;;;;;;;1.35;93.85;101488.55;1737244;82;21182;-57
2020/12/09 01:46:19;;;;;;;24.92;7.20;;;;;;;1.35;93.86;101498.24;1737837;82;21063;-57
2020/12/09 01:48:46;;;;;;;28.23;7.90;;;;;;;1.33;93.92;101479.71;1727692;81;21096;-55
2020/12/09 01:51:16;;;;;;;26.87;8.03;;;;;;;1.34;93.95;101488.09;1683215;83;21398;-56
2020/12/09 01:53:43;;;;;;;21.68;6.78;;;;;;;1.35;93.89;101474.02;1710588;83;21069;-56
2020/12/09 01:56:11;;;;;;;22.02;7.42;;;;;;;1.35;94.05;101477.97;1658104;83;21147;-56
2020/12/09 01:58:38;;;;;;;31.15;8.15;;;;;;;1.39;94.23;101474.95;1699745;83;21135;-56
2020/12/09 02:01:06;;;;;;;21.93;8.08;;;;;;;1.41;94.39;101499.65;1698136;83;21076;-56
2020/12/09 02:03:33;;;;;;;18.82;7.30;;;;;;;1.41;94.02;101503.61;1705429;82;21425;-56
2020/12/09 02:06:02;;;;;;;18.65;6.28;;;;;;;1.39;93.82;101477.15;1710650;83;21222;-56
2020/12/09 02:08:30;;;;;;;28.05;7.30;;;;;;;1.40;94.25;101482.89;1708306;83;21149;-56
2020/12/09 02:11:03;;;;;;;44.42;8.15;;;;;;;1.40;93.89;101480.24;1701468;83;21183;-56
2020/12/09 02:13:31;;;;;;;29.18;8.25;;;;;;;1.39;93.70;101502.25;1693260;83;21143;-57
2020/12/09 02:16:00;;;;;;;16.70;6.58;;;;;;;1.38;93.35;101499.61;1692865;83;21560;-56
2020/12/09 02:18:28;;;;;;;25.17;6.95;;;;;;;1.36;93.16;101482.39;1702529;83;21169;-56
2020/12/09 02:20:55;;;;;;;20.25;7.10;;;;;;;1.36;93.64;101485.03;1708167;83;20941;-56
2020/12/09 02:23:23;;;;;;;20.92;7.30;;;;;;;1.37;94.00;101486.81;1710711;83;21095;-56
2020/12/09 02:25:51;;;;;;;20.23;7.53;;;;;;;1.39;94.21;101495.65;1704515;83;21117;-56
2020/12/09 02:28:19;;;;;;;21.87;7.70;;;;;;;1.40;94.10;101489.50;1695971;83;21769;-57
2020/12/09 02:30:46;;;;;;;19.30;7.45;;;;;;;1.39;94.41;101495.65;1681916;83;21100;-56
2020/12/09 02:33:14;;;;;;;22.32;7.58;;;;;;;1.37;94.48;101490.77;1686426;83;21079;-56
2020/12/09 02:35:42;;;;;;;19.65;7.78;;;;;;;1.36;94.38;101487.67;1705327;83;21145;-56
2020/12/09 02:38:10;;;;;;;40.25;9.10;;;;;;;1.35;94.35;101505.72;1704805;83;21124;-56
2020/12/09 02:40:39;;;;;;;28.55;7.37;;;;;;;1.36;94.43;101491.64;1688134;83;21729;-56
2020/12/09 02:43:06;;;;;;;35.00;7.62;;;;;;;1.36;94.21;101477.11;1719131;82;21090;-55
2020/12/09 02:45:34;;;;;;;37.13;7.47;;;;;;;1.37;94.46;101485.48;1721550;82;21080;-56
2020/12/09 02:48:02;;;;;;;21.00;7.42;;;;;;;1.38;94.98;101491.68;1703838;83;21158;-57
2020/12/09 02:50:29;;;;;;;26.02;8.98;;;;;;;1.39;94.91;101489.04;1707345;83;21147;-57
2020/12/09 02:52:57;;;;;;;21.37;7.80;;;;;;;1.37;94.99;101492.09;1693301;83;21492;-57
2020/12/09 02:55:25;;;;;;;26.30;8.10;;;;;;;1.36;95.06;101504.86;1715712;82;21115;-56
2020/12/09 02:57:52;;;;;;;18.75;7.97;;;;;;;1.35;95.32;101521.58;1729021;82;21088;-57
2020/12/09 03:00:21;;;;;;;27.02;9.20;;;;;;;1.33;95.35;101492.92;1691835;83;21197;-57
2020/12/09 03:02:48;;;;;;;24.72;8.53;;;;;;;1.34;95.66;101524.22;1725959;81;21185;-57
2020/12/09 03:05:18;;;;;;;22.30;7.53;;;;;;;1.33;95.41;101491.60;1713798;82;21380;-57
2020/12/09 03:07:46;;;;;;;22.22;7.47;;;;;;;1.32;95.65;101532.52;1674878;83;21141;-57
2020/12/09 03:10:13;;;;;;;22.60;7.85;;;;;;;1.31;95.68;101505.64;1753712;80;21149;-57
2020/12/09 03:12:41;;;;;;;20.30;7.40;;;;;;;1.31;95.92;101501.26;1753007;81;21135;-57
2020/12/09 03:15:09;;;;;;;21.65;8.70;;;;;;;1.32;95.85;101503.04;1760742;81;21107;-57
2020/12/09 03:17:36;;;;;;;23.45;8.68;;;;;;;1.33;95.75;101504.81;1698956;83;21404;-57
2020/12/09 03:20:04;;;;;;;22.05;7.40;;;;;;;1.33;95.85;101511.87;1734734;82;21086;-56
2020/12/09 03:22:32;;;;;;;24.15;7.17;;;;;;;1.32;95.88;101505.68;1694090;83;21066;-56
2020/12/09 03:25:00;;;;;;;27.55;7.70;;;;;;;1.33;95.75;101529.91;1751023;80;21212;-56
2020/12/09 03:27:27;;;;;;;20.17;7.65;;;;;;;1.31;95.29;101521.08;1771046;80;21191;-56
2020/12/09 03:29:55;;;;;;;22.15;7.58;;;;;;;1.29;95.09;101507.83;1757900;80;21396;-55
2020/12/09 03:32:23;;;;;;;23.15;6.87;;;;;;;1.27;95.09;101539.95;1761286;80;21177;-57
2020/12/09 03:34:50;;;;;;;19.57;7.05;;;;;;;1.26;94.78;101520.12;1759112;80;21205;-57
2020/12/09 03:37:18;;;;;;;23.60;7.47;;;;;;;1.24;94.85;101524.50;1771450;79;21119;-57
2020/12/09 03:39:46;;;;;;;26.37;7.83;;;;;;;1.24;95.17;101508.20;1775653;79;21039;-57
2020/12/09 03:42:14;;;;;;;28.55;6.83;;;;;;;1.26;95.29;101501.63;1781399;79;22484;-57
2020/12/09 03:44:42;;;;;;;22.62;7.17;;;;;;;1.27;95.58;101503.41;1775213;79;21078;-57
2020/12/09 03:47:09;;;;;;;19.40;6.58;;;;;;;1.29;95.62;101517.08;1778650;80;21059;-56
2020/12/09 03:49:37;;;;;;;15.53;7.28;;;;;;;1.31;95.51;101514.89;1779423;79;21052;-56
2020/12/09 03:52:04;;;;;;;23.18;8.10;;;;;;;1.32;95.91;101505.68;1781186;79;21260;-56
2020/12/09 03:54:32;;;;;;;21.33;7.35;;;;;;;1.32;95.65;101513.61;1777009;79;21350;-56
2020/12/09 03:57:00;;;;;;;26.10;7.37;;;;;;;1.31;95.72;101543.53;1777728;79;21057;-56
2020/12/09 03:59:27;;;;;;;19.32;7.33;;;;;;;1.28;95.61;101537.76;1777557;79;21224;-57
2020/12/09 04:01:55;;;;;;;27.70;8.15;;;;;;;1.29;95.90;101532.06;1771248;79;21078;-56
2020/12/09 04:04:22;;;;;;;27.02;8.40;;;;;;;1.27;95.92;101510.88;1779678;79;21051;-56
2020/12/09 04:06:50;;;;;;;25.32;7.42;;;;;;;1.29;96.11;101524.13;1776628;79;21213;-56
2020/12/09 04:09:17;;;;;;;29.18;7.20;;;;;;;1.31;96.25;101536.03;1780915;79;21217;-56
2020/12/09 04:11:45;;;;;;;32.88;8.10;;;;;;;1.31;96.18;101519.75;1778018;79;21502;-56
2020/12/09 04:14:13;;;;;;;24.05;7.30;;;;;;;1.33;96.34;101519.34;1775932;79;21196;-56
2020/12/09 04:16:40;;;;;;;23.45;7.90;;;;;;;1.35;96.47;101548.00;1783639;79;21162;-55
2020/12/09 04:19:08;;;;;;;21.70;7.72;;;;;;;1.37;96.69;101533.05;1776896;80;21356;-56
2020/12/09 04:21:36;;;;;;;28.80;7.00;;;;;;;1.38;96.77;101524.27;1776289;79;21146;-57
2020/12/09 04:24:05;;;;;;;30.05;8.18;;;;;;;1.38;96.78;101540.56;1777414;79;21127;-56
2020/12/09 04:26:32;;;;;;;31.00;8.68;;;;;;;1.36;96.92;101527.31;1777762;80;21087;-57
2020/12/09 04:29:01;;;;;;;28.98;8.23;;;;;;;1.36;96.79;101541.84;1778321;79;21174;-56
2020/12/09 04:31:28;;;;;;;24.27;7.62;;;;;;;1.36;97.00;101535.69;1775828;79;21374;-57
2020/12/09 04:34:00;;;;;;;18.35;7.10;;;;;;;1.36;97.11;101522.03;1778551;80;21078;-57
2020/12/09 04:36:27;;;;;;;36.75;7.35;;;;;;;1.34;96.75;101539.62;1791246;79;21098;-56
2020/12/09 04:38:54;;;;;;;25.23;7.70;;;;;;;1.34;96.98;101551.52;1798161;79;21070;-57
2020/12/09 04:41:22;;;;;;;24.63;7.90;;;;;;;1.34;97.33;101548.87;1736545;82;21138;-57
2020/12/09 04:43:50;;;;;;;28.85;7.97;;;;;;;1.34;97.06;101542.26;1761588;80;22369;-57
2020/12/09 04:46:17;;;;;;;28.85;9.18;;;;;;;1.31;96.77;101551.46;1728432;81;21100;-57
2020/12/09 04:48:59;;;;;;;23.18;7.58;;;;;;;1.30;96.82;101547.05;1720417;82;21195;-57
2020/12/09 04:52:08;;;;;;;20.25;7.17;;;;;;;1.28;96.65;101556.70;1738130;81;21103;-56
2020/12/09 04:54:40;;;;;;;27.37;9.03;;;;;;;1.26;96.53;101571.64;1758320;81;21191;-56
2020/12/09 04:57:15;;;;;;;28.32;8.88;;;;;;;1.24;96.67;101579.53;1735538;82;21186;-56
2020/12/09 04:59:43;;;;;;;29.77;8.28;;;;;;;1.22;96.59;101540.76;1719351;82;21274;-57
2020/12/09 05:02:11;;;;;;;31.40;8.30;;;;;;;1.23;96.79;101549.14;1711223;82;21194;-56
2020/12/09 05:04:39;;;;;;;33.05;8.23;;;;;;;1.25;96.90;101551.38;1801119;79;21158;-56
2020/12/09 05:07:09;;;;;;;25.62;9.00;;;;;;;1.26;96.70;101566.36;1801245;79;21103;-58
2020/12/09 05:09:45;;;;;;;34.18;8.73;;;;;;;1.25;96.75;101589.23;1795824;79;22158;-56
2020/12/09 05:12:15;;;;;;;22.80;7.92;;;;;;;1.24;96.42;101605.95;1738007;82;21285;-56
2020/12/09 05:14:47;;;;;;;29.57;8.28;;;;;;;1.22;96.22;101577.75;1734152;81;21469;-55
2020/12/09 05:17:20;;;;;;;34.75;9.25;;;;;;;1.23;96.32;101559.26;1721454;82;21119;-56
2020/12/09 05:19:48;;;;;;;41.70;8.50;;;;;;;1.25;96.63;101568.09;1734331;82;21605;-56
2020/12/09 05:22:20;;;;;;;39.50;9.20;;;;;;;1.26;96.53;101588.81;1737543;81;21215;-57
2020/12/09 05:24:47;;;;;;;35.40;7.72;;;;;;;1.26;96.64;101576.93;1754856;80;21063;-56
2020/12/09 05:27:16;;;;;;;23.32;7.67;;;;;;;1.25;96.67;101594.97;1752562;80;21054;-56
2020/12/09 05:29:48;;;;;;;23.35;6.87;;;;;;;1.25;96.63;101572.06;1732164;81;21083;-56
2020/12/09 05:32:18;;;;;;;21.52;7.85;;;;;;;1.25;96.83;101577.80;1753267;80;25447;-57
2020/12/09 05:34:46;;;;;;;26.68;8.75;;;;;;;1.25;96.95;101574.70;1732147;81;21254;-56
2020/12/09 05:37:13;;;;;;;26.93;8.55;;;;;;;1.27;96.95;101597.20;1715427;81;21209;-56
2020/12/09 05:39:53;;;;;;;28.95;7.62;;;;;;;1.29;96.99;101582.26;1712802;82;21589;-58
2020/12/09 05:42:22;;;;;;;26.27;7.67;;;;;;;1.31;97.09;101577.89;1715464;82;21170;-56
2020/12/09 05:44:50;;;;;;;27.13;7.87;;;;;;;1.33;97.41;101593.33;1686226;83;21492;-56
2020/12/09 05:47:20;;;;;;;26.25;8.38;;;;;;;1.34;97.35;101572.65;1694722;83;21262;-58
2020/12/09 05:49:49;;;;;;;46.70;8.90;;;;;;;1.38;97.86;101571.83;1722987;82;21123;-57
2020/12/09 05:52:20;;;;;;;25.68;7.70;;;;;;;1.42;97.77;101588.19;1699671;83;21197;-57
2020/12/09 05:54:51;;;;;;;21.77;7.42;;;;;;;1.43;97.47;101603.63;1717969;82;21292;-57
2020/12/09 05:57:24;;;;;;;37.23;7.72;;;;;;;1.45;97.51;101588.68;1710001;82;21066;-57
2020/12/09 05:59:53;;;;;;;39.05;7.78;;;;;;;1.48;97.65;101587.41;1714493;82;21210;-57
2020/12/09 06:02:24;;;;;;;53.48;8.05;;;;;;;1.52;97.51;101580.42;1732784;81;21155;-57
2020/12/09 06:04:59;;;;;;;27.82;8.03;;;;;;;1.54;97.55;101582.66;1725296;80;21317;-57
2020/12/09 06:07:30;;;;;;;21.80;7.70;;;;;;;1.59;97.54;101623.27;1763019;80;21612;-58
2020/12/09 06:10:07;;;;;;;25.60;7.55;;;;;;;1.58;97.16;101600.34;1755117;81;21066;-58
2020/12/09 06:12:56;;;;;;;22.17;7.55;;;;;;;1.59;97.26;101633.84;1755329;81;21434;-56
2020/12/09 06:15:26;;;;;;;24.57;8.05;;;;;;;1.59;97.37;101619.30;1753509;81;21615;-56
2020/12/09 06:18:15;;;;;;;21.25;7.28;;;;;;;1.59;97.26;101596.83;1752931;80;21162;-57
2020/12/09 06:20:46;;;;;;;26.30;8.28;;;;;;;1.61;97.32;101613.59;1758451;80;21190;-57
2020/12/09 06:23:15;;;;;;;22.93;8.53;;;;;;;1.62;97.14;101603.48;1763315;80;21084;-57
2020/12/09 06:25:44;;;;;;;25.52;6.90;;;;;;;1.62;97.32;101619.79;1750931;80;21371;-56
2020/12/09 06:28:15;;;;;;;27.35;7.25;;;;;;;1.65;97.13;101619.38;1744770;81;21154;-57
2020/12/09 06:30:43;;;;;;;27.32;7.75;;;;;;;1.66;97.04;101635.73;1759399;80;21185;-57
2020/12/09 06:33:12;;;;;;;20.30;7.28;;;;;;;1.67;96.94;101624.30;1745205;81;21708;-56
2020/12/09 06:35:41;;;;;;;31.37;7.37;;;;;;;1.68;96.62;101621.20;1751838;80;21182;-56
2020/12/09 06:38:13;;;;;;;24.77;6.35;;;;;;;1.70;96.96;101611.53;1778668;80;21198;-57
2020/12/09 06:40:57;;;;;;;24.35;7.00;;;;;;;1.73;97.13;101623.92;1761305;80;21185;-58
2020/12/09 06:43:25;;;;;;;24.52;7.87;;;;;;;1.75;97.00;101614.26;1738289;80;21479;-57
2020/12/09 06:45:54;;;;;;;34.30;8.85;;;;;;;1.76;96.86;101614.27;1766371;80;21067;-57
2020/12/09 06:48:24;;;;;;;28.70;7.50;;;;;;;1.78;96.81;101615.63;1760707;80;21119;-58
2020/12/09 06:50:51;;;;;;;42.62;8.23;;;;;;;1.78;96.46;101607.28;1755619;80;21385;-57
2020/12/09 06:53:22;;;;;;;22.50;6.90;;;;;;;1.80;96.44;101613.89;1756900;80;21193;-57
2020/12/09 06:55:51;;;;;;;20.72;7.00;;;;;;;1.82;96.23;101645.21;1773781;80;21142;-60
2020/12/09 06:58:28;;;;;;;28.20;8.95;;;;;;;1.84;95.78;101621.91;1766196;80;21194;-57
2020/12/09 07:01:01;;;;;;;23.20;7.62;;;;;;;1.86;95.46;101611.33;1762869;80;21503;-57
2020/12/09 07:03:30;;;;;;;23.25;6.67;;;;;;;1.85;95.39;101617.48;1749513;80;21241;-56
2020/12/09 07:05:58;;;;;;;47.38;7.25;;;;;;;1.84;95.27;101626.29;1760693;80;21075;-57
2020/12/09 07:08:25;;;;;;;21.75;8.68;;;;;;;1.86;95.22;101607.36;1758575;80;21079;-56
2020/12/09 07:10:53;;;;;;;24.77;8.03;;;;;;;1.88;95.31;101604.34;1767362;80;21066;-57
2020/12/09 07:13:23;;;;;;;23.15;7.95;;;;;;;1.91;95.40;101605.70;1723671;80;21177;-58
2020/12/09 07:15:52;;;;;;;25.88;8.38;;;;;;;1.91;95.43;101601.73;1763757;80;21221;-58
2020/12/09 07:18:19;;;;;;;22.77;7.75;;;;;;;1.91;95.24;101606.12;1754962;80;21194;-58
2020/12/09 07:20:48;;;;;;;22.50;7.67;;;;;;;1.90;95.09;101597.31;1756370;80;21161;-58
2020/12/09 07:23:16;;;;;;;23.20;7.60;;;;;;;1.91;95.55;101589.83;1746363;80;37968;-56
2020/12/09 07:25:46;;;;;;;22.75;7.47;;;;;;;1.92;95.68;101599.54;1742469;80;21082;-58
2020/12/09 07:28:14;;;;;;;28.62;8.35;;;;;;;1.94;95.53;101600.87;1755773;80;22254;-59
2020/12/09 07:30:44;;;;;;;23.73;7.60;;;;;;;1.94;95.40;101626.91;1772938;80;21127;-58
2020/12/09 07:33:16;;;;;;;22.77;7.42;;;;;;;1.93;95.20;101600.00;1763561;80;21082;-57
2020/12/09 07:35:44;;;;;;;20.35;7.08;;;;;;;1.94;95.37;101614.09;1762142;80;21079;-58
2020/12/09 07:38:12;;;;;;;32.30;7.30;;;;;;;1.91;95.43;101608.34;1768464;80;21138;-58
2020/12/09 07:40:40;;;;;;;31.57;8.00;;;;;;;1.92;95.84;101621.12;1779246;80;21235;-58
2020/12/09 07:43:12;;;;;;;28.70;8.23;;;;;;;1.92;95.63;101607.48;1689886;83;21500;-57
2020/12/09 07:45:44;;;;;;;29.80;8.08;;;;;;;1.92;95.63;101607.89;1696487;83;21211;-58
2020/12/09 07:48:15;;;;;;;32.25;8.48;;;;;;;1.93;95.80;101614.96;1709113;83;21110;-58
2020/12/09 07:50:52;;;;;;;21.23;7.28;;;;;;;1.93;96.12;101613.22;1740069;81;21094;-58
2020/12/09 07:53:20;;;;;;;17.57;6.45;;;;;;;1.96;96.10;101630.45;1712153;82;21220;-57
2020/12/09 07:55:47;;;;;;;25.12;8.65;;;;;;;1.95;96.34;101635.30;1677955;84;21152;-58
2020/12/09 07:58:17;;;;;;;28.57;9.78;;;;;;;1.94;96.69;101637.48;1755843;80;21249;-57
2020/12/09 08:00:48;;;;;;;22.62;7.42;;;;;;;1.90;96.87;101623.77;1770107;80;21066;-57
2020/12/09 08:03:26;;;;;;;22.90;7.25;;;;;;;1.86;97.02;101636.45;1756292;81;21493;-57
2020/12/09 08:05:55;;;;;;;28.05;8.08;;;;;;;1.80;96.89;101620.50;1767522;80;21151;-57
2020/12/09 08:08:25;;;;;;;21.37;7.62;;;;;;;1.79;97.25;101638.56;1761810;80;21550;-58
2020/12/09 08:10:53;;;;;;;29.55;8.38;;;;;;;1.78;96.97;101619.17;1768384;80;21133;-56
2020/12/09 08:13:25;;;;;;;21.07;6.55;;;;;;;1.77;97.03;101648.22;1772657;80;21145;-57
2020/12/09 08:16:10;;;;;;;31.57;8.80;;;;;;;1.74;96.97;101613.80;1778210;80;21054;-57
2020/12/09 08:18:36;;;;;;;29.45;8.03;;;;;;;1.71;97.00;101613.31;1774919;80;21367;-58
2020/12/09 08:21:04;;;;;;;23.57;7.03;;;;;;;1.69;97.10;101627.84;1767825;80;21057;-58
2020/12/09 08:23:46;;;;;;;31.87;7.10;;;;;;;1.69;97.12;101625.63;1771065;80;21137;-58
2020/12/09 08:26:33;;;;;;;26.10;7.17;;;;;;;1.71;97.60;101632.73;1764333;80;21246;-57
2020/12/09 08:29:01;;;;;;;18.65;7.12;;;;;;;1.74;97.81;101646.41;1765269;80;21170;-57
2020/12/09 08:31:29;;;;;;;27.58;6.85;;;;;;;1.78;97.38;101646.94;1760544;80;21434;-58
2020/12/09 08:33:57;;;;;;;22.27;8.25;;;;;;;1.78;97.12;101652.23;1776413;80;21133;-58
2020/12/09 08:36:26;;;;;;;23.85;7.10;;;;;;;1.77;96.64;101646.48;1787991;79;21228;-58
2020/12/09 08:38:59;;;;;;;27.60;8.20;;;;;;;1.75;96.57;101640.25;1798024;79;21071;-58
2020/12/09 08:41:32;;;;;;;24.67;7.97;;;;;;;1.74;96.37;101616.45;1800899;79;21055;-58
2020/12/09 08:44:05;;;;;;;20.52;8.23;;;;;;;1.74;96.52;101632.31;1800047;79;21623;-58
2020/12/09 08:46:33;;;;;;;25.12;9.38;;;;;;;1.75;96.54;101616.91;1786630;79;21153;-58
2020/12/09 08:49:01;;;;;;;23.02;7.78;;;;;;;1.79;96.53;101616.98;1796360;78;21130;-59
2020/12/09 08:51:38;;;;;;;24.63;8.80;;;;;;;1.80;96.31;101640.34;1733824;82;21163;-58
2020/12/09 08:54:07;;;;;;;24.35;7.45;;;;;;;1.80;96.53;101626.70;1724350;82;21170;-59
2020/12/09 08:56:35;;;;;;;24.55;8.83;;;;;;;1.82;96.42;101632.89;1716951;82;21620;-60
2020/12/09 08:59:03;;;;;;;30.50;10.18;;;;;;;1.84;96.49;101624.97;1733298;81;21087;-58
2020/12/09 09:01:37;;;;;;;33.00;9.63;;;;;;;1.86;96.60;101624.55;1764875;80;21028;-57
2020/12/09 09:04:07;;;;;;;29.25;8.93;;;;;;;1.87;96.50;101638.23;1724311;82;21297;-58
2020/12/09 09:06:34;;;;;;;26.50;8.40;;;;;;;1.82;96.23;101634.22;1728799;82;21095;-58
2020/12/09 09:09:04;;;;;;;26.07;8.98;;;;;;;1.79;96.11;101634.59;1715998;82;21225;-58
2020/12/09 09:11:33;;;;;;;30.05;9.43;;;;;;;1.76;95.99;101656.58;1720432;82;21175;-58
2020/12/09 09:14:01;;;;;;;25.95;8.63;;;;;;;1.71;95.71;101628.77;1723856;82;21201;-57
2020/12/09 09:16:28;;;;;;;21.93;9.00;;;;;;;1.68;96.06;101656.89;1720701;82;21206;-58
2020/12/09 09:18:56;;;;;;;22.60;9.38;;;;;;;1.62;96.02;101674.86;1729876;81;21169;-57
2020/12/09 09:21:24;;;;;;;28.90;9.30;;;;;;;1.59;96.14;101632.52;1763667;80;21363;-58
2020/12/09 09:23:51;;;;;;;27.50;8.53;;;;;;;1.58;96.36;101634.70;1712724;82;21118;-59
2020/12/09 09:26:19;;;;;;;29.05;9.88;;;;;;;1.60;96.63;101646.19;1798226;79;21166;-58
2020/12/09 09:28:47;;;;;;;26.62;9.30;;;;;;;1.59;96.34;101636.48;1797011;79;21233;-59
2020/12/09 09:31:16;;;;;;;33.23;9.45;;;;;;;1.57;96.18;101644.41;1741968;81;21100;-58
2020/12/09 09:33:43;;;;;;;33.28;10.03;;;;;;;1.56;96.29;101637.75;1736041;81;22918;-59
2020/12/09 09:36:12;;;;;;;28.15;10.30;;;;;;;1.55;96.55;101655.39;1734198;82;21548;-58
2020/12/09 09:38:40;;;;;;;33.25;10.28;;;;;;;1.56;96.37;101639.08;1710749;83;21220;-58
2020/12/09 09:41:09;;;;;;;27.55;9.23;;;;;;;1.53;96.46;101620.53;1702146;83;21172;-58
2020/12/09 09:43:37;;;;;;;31.37;8.98;;;;;;;1.52;96.61;101650.02;1754217;80;21314;-57
2020/12/09 09:46:04;;;;;;;26.02;9.80;;;;;;;1.53;96.82;101641.67;1744190;80;21380;-58
2020/12/09 09:48:32;;;;;;;33.50;10.93;;;;;;;1.53;96.80;101632.42;1759843;80;21132;-58
2020/12/09 09:50:59;;;;;;;33.00;10.30;;;;;;;1.53;96.82;101635.06;1761474;80;21107;-58
2020/12/09 09:53:27;;;;;;;31.27;10.20;;;;;;;1.55;96.99;101646.55;1767243;80;21059;-58
2020/12/09 09:55:54;;;;;;;29.63;9.88;;;;;;;1.56;97.00;101647.91;1767153;80;21062;-58
2020/12/09 09:58:22;;;;;;;25.97;9.00;;;;;;;1.55;96.97;101673.89;1774445;80;21703;-58
2020/12/09 10:00:50;;;;;;;31.20;9.08;;;;;;;1.53;96.63;101652.25;1768236;80;21135;-58
2020/12/09 10:03:17;;;;;;;29.23;9.18;;;;;;;1.53;96.47;101641.67;1764671;80;21108;-58
2020/12/09 10:05:46;;;;;;;23.75;10.15;;;;;;;1.54;96.82;101640.80;1770419;79;21079;-58
2020/12/09 10:08:14;;;;;;;31.12;9.75;;;;;;;1.53;96.65;101628.01;1765983;78;21150;-57
2020/12/09 10:10:41;;;;;;;24.57;9.35;;;;;;;1.55;96.72;101630.28;1762594;80;21579;-58
2020/12/09 10:13:09;;;;;;;28.00;10.38;;;;;;;1.57;96.89;101634.25;1758475;80;21193;-58
2020/12/09 10:15:39;;;;;;;24.75;9.83;;;;;;;1.56;96.36;101640.40;1765227;80;21118;-58
2020/12/09 10:18:06;;;;;;;34.45;9.85;;;;;;;1.56;96.64;101627.18;1768261;80;21588;-58
2020/12/09 10:20:34;;;;;;;39.50;9.50;;;;;;;1.57;96.85;101655.39;1757254;80;21102;-57
2020/12/09 10:23:02;;;;;;;31.17;9.80;;;;;;;1.60;96.77;101637.38;1749360;80;21366;-59
2020/12/09 10:25:30;;;;;;;25.32;9.80;;;;;;;1.60;96.68;101645.31;1758355;80;21230;-59
2020/12/09 10:27:57;;;;;;;30.00;10.80;;;;;;;1.59;96.18;101623.72;1762094;80;21034;-58
2020/12/09 10:30:25;;;;;;;35.50;11.10;;;;;;;1.58;96.27;101639.98;1760779;79;21138;-58
2020/12/09 10:32:52;;;;;;;31.05;9.43;;;;;;;1.56;96.25;101637.75;1761644;80;21114;-57
2020/12/09 10:35:20;;;;;;;29.95;10.03;;;;;;;1.55;96.20;101644.81;1778845;80;21446;-59
2020/12/09 10:37:47;;;;;;;27.10;9.08;;;;;;;1.53;95.98;101641.67;1777003;79;21107;-57
2020/12/09 10:40:16;;;;;;;28.52;10.35;;;;;;;1.51;96.11;101634.16;1767945;80;21110;-58
2020/12/09 10:42:44;;;;;;;31.52;10.10;;;;;;;1.53;96.34;101628.45;1757396;80;21050;-58
2020/12/09 10:45:11;;;;;;;28.70;10.28;;;;;;;1.53;96.34;101643.87;1753272;80;21122;-58
2020/12/09 10:47:42;;;;;;;27.32;9.85;;;;;;;1.52;96.24;101631.97;1748377;80;22103;-58
2020/12/09 10:50:10;;;;;;;29.00;10.00;;;;;;;1.49;96.35;101639.84;1778577;78;21157;-58
2020/12/09 10:52:37;;;;;;;29.75;10.68;;;;;;;1.48;96.54;101619.57;1699257;81;21099;-58
2020/12/09 10:55:05;;;;;;;27.55;10.05;;;;;;;1.46;96.54;101645.09;1715097;83;21096;-57
2020/12/09 10:57:32;;;;;;;25.32;9.85;;;;;;;1.43;96.65;101634.89;1717602;83;21569;-57
2020/12/09 11:00:00;;;;;;;28.95;10.50;;;;;;;1.40;96.71;101649.38;1740001;82;21547;-57
2020/12/09 11:02:29;;;;;;;27.10;9.68;;;;;;;1.38;97.11;101643.63;1717032;83;21238;-58
2020/12/09 11:04:56;;;;;;;26.40;9.60;;;;;;;1.38;97.21;101638.34;1727563;80;21078;-59
2020/12/09 11:07:24;;;;;;;28.55;10.78;;;;;;;1.34;97.16;101644.00;1735321;82;21187;-59
2020/12/09 11:09:51;;;;;;;35.15;11.33;;;;;;;1.32;97.58;101654.97;1695773;82;21169;-58
2020/12/09 11:12:19;;;;;;;26.52;9.68;;;;;;;1.33;97.75;101633.42;1724505;82;21390;-58
2020/12/09 11:14:49;;;;;;;35.73;10.30;;;;;;;1.33;97.97;101644.86;1739869;81;21106;-57
2020/12/09 11:17:16;;;;;;;30.20;8.15;;;;;;;1.31;97.90;101630.73;1771557;80;21152;-58
2020/12/09 11:19:44;;;;;;;26.30;6.92;;;;;;;1.32;98.39;101652.74;1769828;80;21180;-57
2020/12/09 11:22:12;;;;;;;28.85;9.08;;;;;;;1.33;98.50;101652.79;1762729;80;21070;-58
2020/12/09 11:24:40;;;;;;;29.60;9.35;;;;;;;1.34;98.54;101661.17;1770342;80;21291;-58
2020/12/09 11:27:07;;;;;;;29.20;8.73;;;;;;;1.37;98.54;101634.80;1769023;80;21170;-58
2020/12/09 11:29:35;;;;;;;24.92;8.70;;;;;;;1.40;98.82;101659.95;1769163;80;21045;-57
2020/12/09 11:32:02;;;;;;;26.10;8.58;;;;;;;1.42;98.67;101649.42;1769539;78;21170;-57
2020/12/09 11:34:30;;;;;;;28.30;9.15;;;;;;;1.41;98.51;101640.59;1796342;78;21199;-58